Time,TemperatureF,DewpointF,PressureIn,WindDirection,WindDirectionDegrees,WindSpeedMPH,WindSpeedGustMPH,Humidity,HourlyPrecipIn,Conditions,Clouds,dailyrainin,SoftwareType,DateUTC
2013-07-06 00:05:00,72.4,69.0,30.03,East,79,0.0,0.0,88,0.00,,,0.06,weatherlink.com 1.10,2013-07-06 10:05:00,
2013-07-06 00:23:00,72.0,69.0,30.02,East,79,0.0,0.0,89,0.00,,,0.00,weatherlink.com 1.10,2013-07-06 10:23:00,
2013-07-06 00:41:00,71.8,68.0,30.01,East,79,0.0,0.0,89,0.00,,,0.00,weatherlink.com 1.10,2013-07-06 10:41:00,
2013-07-06 00:59:00,71.3,68.0,30.01,East,79,0.0,0.0,89,0.00,,,0.00,weatherlink.com 1.10,2013-07-06 10:59:00,
2013-07-06 01:18:00,71.1,68.0,30.00,East,79,0.0,0.0,89,0.00,,,0.00,weatherlink.com 1.10,2013-07-06 11:18:00,
2013-07-06 01:36:00,70.8,68.0,30.00,East,79,0.0,0.0,90,0.00,,,0.00,weatherlink.com 1.10,2013-07-06 11:36:00,
2013-07-06 01:54:00,70.5,68.0,29.99,East,79,0.0,0.0,91,0.00,,,0.00,weatherlink.com 1.10,2013-07-06 11:54:00,
2013-07-06 02:12:00,70.2,67.0,29.99,East,79,0.0,0.0,91,0.00,,,0.00,weatherlink.com 1.10,2013-07-06 12:12:00,
2013-07-06 02:31:00,69.9,67.0,29.99,East,79,0.0,0.0,92,0.00,,,0.00,weatherlink.com 1.10,2013-07-06 12:31:00,
2013-07-06 02:49:00,69.6,67.0,29.99,East,79,0.0,0.0,92,0.00,,,0.00,weatherlink.com 1.10,2013-07-06 12:49:00,
2013-07-06 03:07:00,69.4,67.0,29.99,East,79,0.0,0.0,92,0.00,,,0.00,weatherlink.com 1.10,2013-07-06 13:07:00,
2013-07-06 03:25:00,69.3,67.0,29.98,East,79,0.0,0.0,92,0.00,,,0.00,weatherlink.com 1.10,2013-07-06 13:25:00,
2013-07-06 03:44:00,69.1,67.0,29.98,East,79,0.0,0.0,93,0.00,,,0.00,weatherlink.com 1.10,2013-07-06 13:44:00,
2013-07-06 04:02:00,68.9,67.0,29.97,East,79,0.0,0.0,93,0.00,,,0.00,weatherlink.com 1.10,2013-07-06 14:02:00,
2013-07-06 04:20:00,69.0,67.0,29.98,East,79,0.0,0.0,93,0.00,,,0.00,weatherlink.com 1.10,2013-07-06 14:20:00,
2013-07-06 04:38:00,69.2,67.0,29.98,East,79,0.0,0.0,93,0.00,,,0.00,weatherlink.com 1.10,2013-07-06 14:38:00,
2013-07-06 04:57:00,69.1,67.0,29.98,East,79,0.0,0.0,93,0.00,,,0.00,weatherlink.com 1.10,2013-07-06 14:57:00,
2013-07-06 05:15:00,69.2,67.0,29.98,East,79,0.0,0.0,94,0.00,,,0.00,weatherlink.com 1.10,2013-07-06 15:15:00,
2013-07-06 05:33:00,69.1,67.0,29.98,East,79,0.0,0.0,93,0.00,,,0.00,weatherlink.com 1.10,2013-07-06 15:33:00,
2013-07-06 05:52:00,69.1,67.0,29.98,East,79,0.0,0.0,94,0.00,,,0.00,weatherlink.com 1.10,2013-07-06 15:52:00,
2013-07-06 06:10:00,69.2,67.0,29.98,East,79,0.0,0.0,94,0.00,,,0.00,weatherlink.com 1.10,2013-07-06 16:10:00,
2013-07-06 06:28:00,69.7,68.0,29.98,East,79,0.0,0.0,95,0.00,,,0.00,weatherlink.com 1.10,2013-07-06 16:28:00,
2013-07-06 07:42:00,77.2,71.0,30.00,NNW,333,1.0,5.0,82,0.00,,,0.00,weatherlink.com 1.10,2013-07-06 17:42:00,
2013-07-06 08:01:00,78.7,72.0,30.00,North,349,0.0,3.0,79,0.00,,,0.00,weatherlink.com 1.10,2013-07-06 18:01:00,
2013-07-06 08:19:00,79.1,71.0,30.00,NNW,330,0.0,5.0,77,0.00,,,0.00,weatherlink.com 1.10,2013-07-06 18:19:00,
2013-07-06 08:37:00,79.2,71.0,30.01,NNE,26,4.0,6.0,77,0.00,,,0.00,weatherlink.com 1.10,2013-07-06 18:37:00,
2013-07-06 08:55:00,81.0,73.0,30.01,NE,55,3.0,6.0,76,0.00,,,0.00,weatherlink.com 1.10,2013-07-06 18:55:00,
2013-07-06 09:32:00,80.4,71.0,30.01,North,360,0.0,5.0,74,0.00,,,0.00,weatherlink.com 1.10,2013-07-06 19:32:00,
2013-07-06 09:50:00,81.4,72.0,30.01,NE,55,2.0,9.0,73,0.00,,,0.00,weatherlink.com 1.10,2013-07-06 19:50:00,
2013-07-06 10:26:00,81.2,72.0,30.01,NNE,19,4.0,8.0,74,0.00,,,0.00,weatherlink.com 1.10,2013-07-06 20:26:00,
2013-07-06 10:44:00,81.4,72.0,30.01,NNW,331,6.0,9.0,72,0.00,,,0.00,weatherlink.com 1.10,2013-07-06 20:44:00,
2013-07-06 11:02:00,82.5,71.0,30.01,North,355,4.0,7.0,69,0.00,,,0.00,weatherlink.com 1.10,2013-07-06 21:02:00,
2013-07-06 11:21:00,82.7,71.0,30.01,NNW,331,2.0,11.0,67,0.00,,,0.00,weatherlink.com 1.10,2013-07-06 21:21:00,
2013-07-06 11:38:00,83.6,71.0,30.01,NNE,22,5.0,8.0,67,0.00,,,0.00,weatherlink.com 1.10,2013-07-06 21:38:00,
2013-07-06 11:57:00,83.5,71.0,30.01,NNE,12,2.0,8.0,66,0.00,,,0.00,weatherlink.com 1.10,2013-07-06 21:57:00,
2013-07-06 12:14:00,83.7,72.0,30.00,NE,53,1.0,8.0,69,0.00,,,0.00,weatherlink.com 1.10,2013-07-06 22:14:00,
2013-07-06 12:33:00,83.6,72.0,30.00,NNE,28,5.0,8.0,68,0.00,,,0.00,weatherlink.com 1.10,2013-07-06 22:33:00,
2013-07-06 12:51:00,82.8,72.0,29.99,NNE,22,5.0,12.0,69,0.00,,,0.00,weatherlink.com 1.10,2013-07-06 22:51:00,
2013-07-06 13:09:00,83.0,72.0,29.99,NNW,344,3.0,7.0,69,0.00,,,0.00,weatherlink.com 1.10,2013-07-06 23:09:00,
2013-07-06 13:46:00,83.1,72.0,29.98,NNE,24,3.0,9.0,69,0.00,,,0.00,weatherlink.com 1.10,2013-07-06 23:46:00,
2013-07-06 14:03:00,82.4,71.0,29.98,NE,34,4.0,6.0,69,0.00,,,0.00,weatherlink.com 1.10,2013-07-07 00:03:00,
2013-07-06 14:39:00,82.7,71.0,29.97,North,355,4.0,6.0,69,0.00,,,0.00,weatherlink.com 1.10,2013-07-07 00:39:00,
2013-07-06 15:54:00,81.9,72.0,29.96,NNW,347,5.0,7.0,73,0.00,,,0.00,weatherlink.com 1.10,2013-07-07 01:54:00,
2013-07-06 16:12:00,80.0,71.0,29.96,NE,51,2.0,6.0,75,0.00,,,0.00,weatherlink.com 1.10,2013-07-07 02:12:00,
2013-07-06 16:31:00,79.7,72.0,29.95,NNW,340,3.0,9.0,78,0.00,,,0.00,weatherlink.com 1.10,2013-07-07 02:31:00,
2013-07-06 17:25:00,78.8,71.0,29.95,NNE,33,0.0,5.0,78,0.00,,,0.00,weatherlink.com 1.10,2013-07-07 03:25:00,
2013-07-06 18:02:00,78.5,71.0,29.96,North,355,0.0,5.0,79,0.00,,,0.00,weatherlink.com 1.10,2013-07-07 04:02:00,
2013-07-06 18:20:00,78.4,71.0,29.96,North,355,0.0,5.0,79,0.00,,,0.00,weatherlink.com 1.10,2013-07-07 04:20:00,
2013-07-06 18:38:00,78.1,71.0,29.96,East,80,0.0,0.0,79,0.00,,,0.00,weatherlink.com 1.10,2013-07-07 04:38:00,
2013-07-06 18:56:00,78.1,71.0,29.97,NE,43,0.0,3.0,79,0.00,,,0.00,weatherlink.com 1.10,2013-07-07 04:56:00,
2013-07-06 19:14:00,77.8,71.0,29.97,NNW,336,2.0,4.0,80,0.00,,,0.00,weatherlink.com 1.10,2013-07-07 05:14:00,
2013-07-06 19:33:00,77.5,71.0,29.97,NNW,346,0.0,4.0,81,0.00,,,0.00,weatherlink.com 1.10,2013-07-07 05:33:00,
2013-07-06 19:50:00,77.2,71.0,29.98,North,355,0.0,2.0,81,0.00,,,0.00,weatherlink.com 1.10,2013-07-07 05:50:00,
2013-07-06 20:08:00,76.9,71.0,29.98,North,355,0.0,0.0,81,0.00,,,0.00,weatherlink.com 1.10,2013-07-07 06:08:00,
2013-07-06 20:26:00,76.6,70.0,29.98,North,355,0.0,0.0,81,0.00,,,0.00,weatherlink.com 1.10,2013-07-07 06:26:00,
2013-07-06 20:45:00,75.8,70.0,29.99,North,355,0.0,0.0,83,0.00,,,0.00,weatherlink.com 1.10,2013-07-07 06:45:00,
2013-07-06 21:03:00,75.0,70.0,29.99,North,355,0.0,0.0,85,0.00,,,0.00,weatherlink.com 1.10,2013-07-07 07:03:00,
2013-07-06 21:21:00,74.4,70.0,29.99,North,355,0.0,0.0,87,0.00,,,0.00,weatherlink.com 1.10,2013-07-07 07:21:00,
2013-07-06 21:40:00,73.9,70.0,29.99,North,355,0.0,0.0,87,0.00,,,0.00,weatherlink.com 1.10,2013-07-07 07:40:00,
2013-07-06 21:58:00,73.6,70.0,30.00,North,355,0.0,0.0,88,0.00,,,0.00,weatherlink.com 1.10,2013-07-07 07:58:00,
2013-07-06 22:16:00,73.4,70.0,30.00,North,355,0.0,0.0,88,0.00,,,0.00,weatherlink.com 1.10,2013-07-07 08:16:00,
2013-07-06 22:34:00,73.1,69.0,30.00,North,355,0.0,0.0,88,0.00,,,0.00,weatherlink.com 1.10,2013-07-07 08:34:00,
2013-07-06 22:52:00,72.8,69.0,30.00,North,355,0.0,0.0,89,0.00,,,0.00,weatherlink.com 1.10,2013-07-07 08:52:00,
2013-07-06 23:11:00,72.6,69.0,30.00,North,355,0.0,0.0,89,0.00,,,0.00,weatherlink.com 1.10,2013-07-07 09:11:00,
2013-07-06 23:29:00,72.3,69.0,29.99,North,355,0.0,0.0,90,0.00,,,0.00,weatherlink.com 1.10,2013-07-07 09:29:00,
2013-07-06 23:47:00,72.1,69.0,29.99,North,355,0.0,0.0,90,0.00,,,0.00,weatherlink.com 1.10,2013-07-07 09:47:00,